createdAt,value
2023-05-10T00:02:09.363Z,15.10
2023-05-10T00:04:36.890Z,15.00
2023-05-10T00:07:04.177Z,15.10
2023-05-10T00:09:31.487Z,15.00
2023-05-10T00:11:59.598Z,15.00
2023-05-10T00:14:26.860Z,15.00
2023-05-10T00:16:54.185Z,15.00
2023-05-10T00:19:21.606Z,15.00
2023-05-10T00:21:48.939Z,15.10
2023-05-10T00:24:16.143Z,15.00
2023-05-10T00:26:43.382Z,15.00
2023-05-10T00:29:10.653Z,15.10
2023-05-10T00:31:37.902Z,15.00
2023-05-10T00:34:05.628Z,15.10
2023-05-10T00:36:32.990Z,15.10
2023-05-10T00:39:00.389Z,15.00
2023-05-10T00:41:27.686Z,15.10
2023-05-10T00:43:55.709Z,15.10
2023-05-10T00:46:25.793Z,15.10
2023-05-10T00:48:53.653Z,15.10
2023-05-10T00:51:21.055Z,15.10
2023-05-10T00:53:49.408Z,15.00
2023-05-10T00:56:17.298Z,15.10
2023-05-10T00:58:44.651Z,15.10
2023-05-10T01:01:12.770Z,15.10
2023-05-10T01:03:40.814Z,15.10
2023-05-10T01:06:08.622Z,15.10
2023-05-10T01:08:35.881Z,15.10
2023-05-10T01:11:03.787Z,15.00
2023-05-10T01:13:41.316Z,15.10
2023-05-10T01:16:09.896Z,15.00
2023-05-10T01:18:42.405Z,15.00
2023-05-10T01:21:24.549Z,15.10
2023-05-10T01:24:28.752Z,15.10
2023-05-10T01:27:20.621Z,15.10
2023-05-10T01:30:04.976Z,15.10
2023-05-10T01:33:09.207Z,15.00
2023-05-10T01:36:01.483Z,15.10
2023-05-10T01:38:34.841Z,15.00
2023-05-10T01:41:09.508Z,15.00
2023-05-10T01:43:49.552Z,15.00
2023-05-10T01:46:24.826Z,15.10
2023-05-10T01:48:55.172Z,15.00
2023-05-10T01:51:30.099Z,15.00
2023-05-10T01:54:03.138Z,15.10
2023-05-10T01:56:33.332Z,15.10
2023-05-10T01:59:04.477Z,15.10
2023-05-10T02:01:32.781Z,15.10
2023-05-10T02:04:00.972Z,15.00
2023-05-10T02:06:28.605Z,15.10
2023-05-10T02:08:56.713Z,15.10
2023-05-10T02:11:26.429Z,15.00
2023-05-10T02:13:56.089Z,14.80
2023-05-10T02:16:31.937Z,14.80
2023-05-10T02:19:03.011Z,14.90
2023-05-10T02:21:31.779Z,14.80
2023-05-10T02:24:00.360Z,14.90
2023-05-10T02:26:30.317Z,14.90
2023-05-10T02:28:59.362Z,14.90
2023-05-10T02:31:27.258Z,14.90
2023-05-10T02:33:55.089Z,14.90
2023-05-10T02:36:23.770Z,14.90
2023-05-10T02:38:53.806Z,14.90
2023-05-10T02:41:25.150Z,15.00
2023-05-10T02:43:56.907Z,15.00
2023-05-10T02:46:25.172Z,15.00
2023-05-10T02:48:52.494Z,15.00
2023-05-10T02:51:21.893Z,14.90
2023-05-10T02:53:51.828Z,15.00
2023-05-10T02:56:32.666Z,15.00
2023-05-10T02:59:00.145Z,15.00
2023-05-10T03:01:27.488Z,15.00
2023-05-10T03:03:55.001Z,15.00
2023-05-10T03:06:22.413Z,15.00
2023-05-10T03:08:49.878Z,15.00
2023-05-10T03:11:33.347Z,15.00
2023-05-10T03:14:10.123Z,15.00
2023-05-10T03:16:48.123Z,15.00
2023-05-10T03:19:30.501Z,15.00
2023-05-10T03:22:04.504Z,14.90
2023-05-10T03:24:37.642Z,14.80
2023-05-10T03:27:05.409Z,14.80
2023-05-10T03:29:34.030Z,14.80
2023-05-10T03:32:01.655Z,14.80
2023-05-10T03:34:32.606Z,14.80
2023-05-10T03:37:00.058Z,14.80
2023-05-10T03:39:30.749Z,14.90
2023-05-10T03:42:00.142Z,14.90
2023-05-10T03:44:27.472Z,14.90
2023-05-10T03:46:55.150Z,14.90
2023-05-10T03:49:22.519Z,14.90
2023-05-10T03:51:49.871Z,14.90
2023-05-10T03:54:17.129Z,15.00
2023-05-10T03:56:44.500Z,15.00
2023-05-10T03:59:15.056Z,15.00
2023-05-10T04:01:42.433Z,14.90
2023-05-10T04:04:10.109Z,14.90
2023-05-10T04:06:38.773Z,15.00
2023-05-10T04:09:06.435Z,15.00
2023-05-10T04:11:33.740Z,15.00
2023-05-10T04:14:00.994Z,15.00
2023-05-10T04:16:28.393Z,15.00
2023-05-10T04:18:55.675Z,15.00
2023-05-10T04:21:22.920Z,15.00
2023-05-10T04:23:50.196Z,15.00
2023-05-10T04:26:17.517Z,15.00
2023-05-10T04:28:44.745Z,15.00
2023-05-10T04:31:12.445Z,14.90
2023-05-10T04:33:40.132Z,14.90
2023-05-10T04:36:07.767Z,14.90
2023-05-10T04:38:35.082Z,14.80
2023-05-10T04:41:10.099Z,14.80
2023-05-10T04:43:38.411Z,14.80
2023-05-10T04:46:06.870Z,14.80
2023-05-10T04:48:34.595Z,14.80
2023-05-10T04:51:02.152Z,14.80
2023-05-10T04:53:29.450Z,14.80
2023-05-10T04:55:56.708Z,14.80
2023-05-10T04:58:24.007Z,14.80
2023-05-10T05:00:51.276Z,14.90
2023-05-10T05:03:18.583Z,14.80
2023-05-10T05:05:46.009Z,14.80
2023-05-10T05:08:13.911Z,14.70
2023-05-10T05:10:41.335Z,14.70
2023-05-10T05:13:08.650Z,14.70
2023-05-10T05:15:36.001Z,14.70
2023-05-10T05:18:03.560Z,14.70
2023-05-10T05:20:34.440Z,14.70
2023-05-10T05:23:02.559Z,14.70
2023-05-10T05:25:29.920Z,14.70
2023-05-10T05:27:57.197Z,14.70
2023-05-10T05:30:24.372Z,14.70
2023-05-10T05:32:51.788Z,14.70
2023-05-10T05:35:19.534Z,14.70
2023-05-10T05:37:46.871Z,14.70
2023-05-10T05:40:15.012Z,14.70
2023-05-10T05:42:42.408Z,14.80
2023-05-10T05:45:13.792Z,14.90
2023-05-10T05:47:41.461Z,14.80
2023-05-10T05:50:09.180Z,14.80
2023-05-10T05:52:37.055Z,14.90
2023-05-10T05:55:04.697Z,15.00
2023-05-10T05:57:31.943Z,15.00
2023-05-10T05:59:59.259Z,15.10
2023-05-10T06:02:26.649Z,15.20
2023-05-10T06:04:53.870Z,15.20
2023-05-10T06:07:21.298Z,15.20
2023-05-10T06:09:48.597Z,15.20
2023-05-10T06:12:15.984Z,15.20
2023-05-10T06:14:43.346Z,15.30
2023-05-10T06:17:10.584Z,15.30
2023-05-10T06:19:44.032Z,15.30
2023-05-10T06:22:11.348Z,15.30
2023-05-10T06:24:41.401Z,15.30
2023-05-10T06:27:08.928Z,15.30
2023-05-10T06:29:36.175Z,15.30
2023-05-10T06:32:03.564Z,15.30
2023-05-10T06:34:30.789Z,15.30
2023-05-10T06:36:58.306Z,15.30
2023-05-10T06:39:26.175Z,15.30
2023-05-10T06:41:53.636Z,15.10
2023-05-10T06:44:20.953Z,15.10
2023-05-10T06:46:48.364Z,15.10
2023-05-10T06:49:15.757Z,15.10
2023-05-10T06:51:43.068Z,15.10
2023-05-10T06:54:10.393Z,15.10
2023-05-10T06:56:37.688Z,15.10
2023-05-10T06:59:04.979Z,15.10
2023-05-10T07:01:32.272Z,15.00
2023-05-10T07:03:59.556Z,15.10
2023-05-10T07:06:33.492Z,15.00
2023-05-10T07:09:01.833Z,15.10
2023-05-10T07:11:29.391Z,15.10
2023-05-10T07:13:56.623Z,15.20
2023-05-10T07:16:24.005Z,15.20
2023-05-10T07:18:51.686Z,15.20
2023-05-10T07:21:18.986Z,15.30
2023-05-10T07:23:46.392Z,15.30
2023-05-10T07:26:13.875Z,15.30
2023-05-10T07:28:41.392Z,15.40
2023-05-10T07:31:08.681Z,15.40
2023-05-10T07:33:36.302Z,15.40
2023-05-10T07:36:03.901Z,15.40
2023-05-10T07:38:31.153Z,15.40
2023-05-10T07:40:58.487Z,15.30
2023-05-10T07:43:25.915Z,15.30
2023-05-10T07:45:56.025Z,15.30
2023-05-10T07:48:23.537Z,15.40
2023-05-10T07:50:50.823Z,15.40
2023-05-10T07:53:19.537Z,15.40
2023-05-10T07:55:52.706Z,15.40
2023-05-10T07:58:20.031Z,15.40
2023-05-10T08:00:47.537Z,15.40
2023-05-10T08:03:14.963Z,15.40
2023-05-10T08:05:42.685Z,15.40
2023-05-10T08:08:09.951Z,15.40
2023-05-10T08:10:37.226Z,15.40
2023-05-10T08:13:04.474Z,15.40
2023-05-10T08:15:31.829Z,15.40
2023-05-10T08:17:59.066Z,15.50
2023-05-10T08:20:26.454Z,15.50
2023-05-10T08:22:54.233Z,15.50
2023-05-10T08:25:21.616Z,15.60
2023-05-10T08:27:48.935Z,15.60
2023-05-10T08:30:16.284Z,15.60
2023-05-10T08:32:43.562Z,15.50
2023-05-10T08:35:10.820Z,15.50
2023-05-10T08:37:38.053Z,15.50
2023-05-10T08:40:05.913Z,15.60
2023-05-10T08:42:37.073Z,15.50
2023-05-10T08:45:05.562Z,15.50
2023-05-10T08:47:33.034Z,15.50
2023-05-10T08:50:01.572Z,15.50
2023-05-10T08:52:30.874Z,15.70
2023-05-10T08:54:58.109Z,15.70
2023-05-10T08:57:25.817Z,15.80
2023-05-10T08:59:53.280Z,15.90
2023-05-10T09:02:22.152Z,16.00
2023-05-10T09:04:50.090Z,15.90
2023-05-10T09:07:18.079Z,16.10
2023-05-10T09:09:46.749Z,16.10
2023-05-10T09:12:16.526Z,16.10
2023-05-10T09:14:45.761Z,16.10
2023-05-10T09:17:13.506Z,16.20
2023-05-10T09:19:40.868Z,16.20
2023-05-10T09:22:08.284Z,16.20
2023-05-10T09:24:35.695Z,16.30
2023-05-10T09:27:03.166Z,16.40
2023-05-10T09:29:55.290Z,16.40
2023-05-10T09:32:22.610Z,16.50
2023-05-10T09:34:51.020Z,16.60
2023-05-10T09:37:18.257Z,16.60
2023-05-10T09:39:45.558Z,16.50
2023-05-10T09:42:12.941Z,16.40
2023-05-10T09:44:41.880Z,16.40
2023-05-10T09:47:09.240Z,16.40
2023-05-10T09:49:36.582Z,16.40
2023-05-10T09:52:05.587Z,16.30
2023-05-10T09:54:34.112Z,16.30
2023-05-10T09:57:02.147Z,16.40
2023-05-10T09:59:30.088Z,16.40
2023-05-10T10:01:59.143Z,16.30
2023-05-10T10:04:27.140Z,16.30
2023-05-10T10:07:02.514Z,16.50
2023-05-10T10:09:30.309Z,16.50
2023-05-10T10:11:57.785Z,16.70
2023-05-10T10:14:25.676Z,17.00
2023-05-10T10:17:06.369Z,17.10
2023-05-10T10:19:36.592Z,17.30
2023-05-10T10:22:04.355Z,17.50
2023-05-10T10:24:32.975Z,17.70
2023-05-10T10:27:15.252Z,17.80
2023-05-10T10:29:51.152Z,17.90
2023-05-10T10:32:21.751Z,18.00
2023-05-10T10:34:49.421Z,18.00
2023-05-10T10:37:16.736Z,18.10
2023-05-10T10:39:43.973Z,18.20
2023-05-10T10:42:11.213Z,18.30
2023-05-10T10:44:39.396Z,18.30
2023-05-10T10:47:13.274Z,18.30
2023-05-10T10:49:43.736Z,18.30
2023-05-10T10:52:40.925Z,18.30
2023-05-10T10:55:34.651Z,18.30
2023-05-10T10:58:03.186Z,18.40
2023-05-10T11:00:34.522Z,18.50
2023-05-10T11:03:15.471Z,18.60
2023-05-10T11:05:43.768Z,18.70
2023-05-10T11:08:11.121Z,18.80
2023-05-10T11:10:39.476Z,18.90
2023-05-10T11:13:11.266Z,19.10
2023-05-10T11:15:40.579Z,19.10
2023-05-10T11:18:30.745Z,19.10
2023-05-10T11:21:10.242Z,19.10
2023-05-10T11:23:40.650Z,19.20
2023-05-10T11:26:12.644Z,19.20
2023-05-10T11:28:47.693Z,19.20
2023-05-10T11:31:19.558Z,19.30
2023-05-10T11:33:48.529Z,19.30
2023-05-10T11:36:17.539Z,19.30
2023-05-10T11:38:45.596Z,19.30
2023-05-10T11:41:13.869Z,19.20
2023-05-10T11:43:41.706Z,19.10
2023-05-10T11:46:14.220Z,19.10
2023-05-10T11:48:42.578Z,19.10
2023-05-10T11:51:11.425Z,19.10
2023-05-10T11:53:39.225Z,19.10
2023-05-10T11:56:08.056Z,18.90
2023-05-10T11:58:36.346Z,18.90
2023-05-10T12:01:04.957Z,19.00
2023-05-10T12:03:32.592Z,19.10
2023-05-10T12:06:01.589Z,19.30
2023-05-10T12:08:30.697Z,19.30
2023-05-10T12:11:09.407Z,19.20
2023-05-10T12:13:41.332Z,19.30
2023-05-10T12:16:17.010Z,19.20
2023-05-10T12:18:44.937Z,19.20
2023-05-10T12:21:12.936Z,19.40
2023-05-10T12:23:40.880Z,19.50
2023-05-10T12:26:11.120Z,19.60
2023-05-10T12:28:40.506Z,19.70
2023-05-10T12:31:08.265Z,19.80
2023-05-10T12:33:44.052Z,19.90
2023-05-10T12:36:12.871Z,19.90
2023-05-10T12:38:44.092Z,19.90
2023-05-10T12:41:22.221Z,20.00
2023-05-10T12:43:49.590Z,20.00
2023-05-10T12:46:19.582Z,19.90
2023-05-10T12:48:51.772Z,20.00
2023-05-10T12:51:23.508Z,20.00
2023-05-10T12:53:50.783Z,20.20
2023-05-10T12:56:18.062Z,20.40
2023-05-10T12:58:49.018Z,20.50
2023-05-10T13:01:16.572Z,20.50
2023-05-10T13:03:46.505Z,20.60
2023-05-10T13:06:14.904Z,20.70
2023-05-10T13:08:42.327Z,20.90
2023-05-10T13:11:09.647Z,20.90
2023-05-10T13:13:36.936Z,20.80
2023-05-10T13:16:04.419Z,20.90
2023-05-10T13:18:31.670Z,20.90
2023-05-10T13:20:58.951Z,20.80
2023-05-10T13:23:26.226Z,20.70
2023-05-10T13:25:53.582Z,20.70
2023-05-10T13:28:20.858Z,20.60
2023-05-10T13:30:48.113Z,20.60
2023-05-10T13:33:15.373Z,20.60
2023-05-10T13:35:42.681Z,20.60
2023-05-10T13:38:10.297Z,20.30
2023-05-10T13:40:37.661Z,20.50
2023-05-10T13:43:04.862Z,20.50
2023-05-10T13:45:32.168Z,20.50
2023-05-10T13:47:59.434Z,20.70
2023-05-10T13:50:26.907Z,21.00
2023-05-10T13:52:54.281Z,21.10
2023-05-10T13:58:06.108Z,21.40
2023-05-10T14:00:33.489Z,21.50
2023-05-10T14:03:00.917Z,21.60
2023-05-10T14:05:28.447Z,21.70
2023-05-10T14:07:58.221Z,21.90
2023-05-10T14:10:25.800Z,22.00
2023-05-10T14:12:53.023Z,22.10
2023-05-10T14:15:20.412Z,22.20
2023-05-10T14:17:47.757Z,22.20
2023-05-10T14:20:16.023Z,22.10
2023-05-10T14:22:43.293Z,22.00
2023-05-10T14:25:10.725Z,22.20
2023-05-10T14:27:38.059Z,22.80
2023-05-10T14:30:05.921Z,23.20
2023-05-10T14:32:33.339Z,23.10
2023-05-10T14:35:00.734Z,23.40
2023-05-10T14:37:28.011Z,23.50
2023-05-10T14:39:55.420Z,23.50
2023-05-10T14:42:22.738Z,23.30
2023-05-10T14:44:49.944Z,23.00
2023-05-10T14:47:17.148Z,22.40
2023-05-10T14:49:44.358Z,22.10
2023-05-10T14:52:13.109Z,21.90
2023-05-10T14:54:41.160Z,21.60
2023-05-10T14:57:08.436Z,21.50
2023-05-10T14:59:35.662Z,21.30
2023-05-10T15:02:04.208Z,21.30
2023-05-10T15:04:32.096Z,21.60
2023-05-10T15:07:00.471Z,22.10
2023-05-10T15:09:28.784Z,22.20
2023-05-10T15:11:56.625Z,22.20
2023-05-10T15:14:24.268Z,21.90
2023-05-10T15:16:51.645Z,21.70
2023-05-10T15:19:20.934Z,21.40
2023-05-10T15:21:48.370Z,21.10
2023-05-10T15:24:15.657Z,20.90
2023-05-10T15:26:42.891Z,20.80
2023-05-10T15:29:10.532Z,20.70
2023-05-10T15:31:40.945Z,20.70
2023-05-10T15:34:08.307Z,20.90
2023-05-10T15:36:35.633Z,21.40
2023-05-10T15:39:04.576Z,21.80
2023-05-10T15:41:32.001Z,22.10
2023-05-10T15:44:02.142Z,22.50
2023-05-10T15:46:29.840Z,22.50
2023-05-10T15:48:59.349Z,22.40
2023-05-10T15:51:26.841Z,22.40
2023-05-10T15:54:05.935Z,22.40
2023-05-10T15:56:35.105Z,22.60
2023-05-10T15:59:02.711Z,22.80
2023-05-10T16:01:30.877Z,23.00
2023-05-10T16:03:58.237Z,23.10
2023-05-10T16:06:25.496Z,23.50
2023-05-10T16:08:54.151Z,23.80
2023-05-10T16:11:22.393Z,23.80
2023-05-10T16:13:49.743Z,23.80
2023-05-10T16:16:17.102Z,24.00
2023-05-10T16:18:44.873Z,24.10
2023-05-10T16:21:12.289Z,24.20
2023-05-10T16:23:40.299Z,23.70
2023-05-10T16:26:07.588Z,23.10
2023-05-10T16:28:35.274Z,22.90
2023-05-10T16:31:02.913Z,22.60
2023-05-10T16:33:30.433Z,22.50
2023-05-10T16:35:57.709Z,22.50
2023-05-10T16:38:25.128Z,22.20
2023-05-10T16:40:52.371Z,21.90
2023-05-10T16:43:19.688Z,21.40
2023-05-10T16:45:47.058Z,21.40
2023-05-10T16:48:14.493Z,21.30
2023-05-10T16:50:44.903Z,21.20
2023-05-10T16:53:12.335Z,20.90
2023-05-10T16:55:39.607Z,20.80
2023-05-10T16:58:06.818Z,20.70
2023-05-10T17:00:34.150Z,20.70
2023-05-10T17:03:01.735Z,20.60
2023-05-10T17:05:29.621Z,20.50
2023-05-10T17:07:56.939Z,20.50
2023-05-10T17:10:24.215Z,20.40
2023-05-10T17:12:51.497Z,20.40
2023-05-10T17:15:19.523Z,20.20
2023-05-10T17:17:47.806Z,20.20
2023-05-10T17:20:15.195Z,20.10
2023-05-10T17:22:45.607Z,19.80
2023-05-10T17:25:12.949Z,19.70
2023-05-10T17:27:40.534Z,19.60
2023-05-10T17:30:08.482Z,19.60
2023-05-10T17:32:35.869Z,19.50
2023-05-10T17:35:05.045Z,19.30
2023-05-10T17:37:33.102Z,19.40
2023-05-10T17:40:00.882Z,19.40
2023-05-10T17:42:28.164Z,19.50
2023-05-10T17:44:55.866Z,19.50
2023-05-10T17:47:23.191Z,19.60
2023-05-10T17:49:50.605Z,19.60
2023-05-10T17:52:17.909Z,19.40
2023-05-10T17:54:45.711Z,19.40
2023-05-10T17:57:12.913Z,19.40
2023-05-10T17:59:40.222Z,19.30
2023-05-10T18:02:07.457Z,19.30
2023-05-10T18:04:34.805Z,19.40
2023-05-10T18:07:02.964Z,19.40
2023-05-10T18:09:30.360Z,19.40
2023-05-10T18:11:57.678Z,19.30
2023-05-10T18:14:39.032Z,19.10
2023-05-10T18:17:08.685Z,19.10
2023-05-10T18:19:35.941Z,19.00
2023-05-10T18:22:03.323Z,18.90
2023-05-10T18:24:40.269Z,18.90
2023-05-10T18:27:09.013Z,18.80
2023-05-10T18:29:36.805Z,18.70
2023-05-10T18:32:04.340Z,18.60
2023-05-10T18:34:31.607Z,18.50
2023-05-10T18:36:59.719Z,18.40
2023-05-10T18:39:27.064Z,18.40
2023-05-10T18:41:54.397Z,18.40
2023-05-10T18:44:23.170Z,18.30
2023-05-10T18:46:54.101Z,18.20
2023-05-10T18:49:21.530Z,18.00
2023-05-10T18:51:48.876Z,17.70
2023-05-10T18:54:16.214Z,17.80
2023-05-10T18:56:45.197Z,17.80
2023-05-10T18:59:12.931Z,17.70
2023-05-10T19:01:43.346Z,17.70
2023-05-10T19:04:10.836Z,17.60
2023-05-10T19:06:38.252Z,17.50
2023-05-10T19:09:05.546Z,17.40
2023-05-10T19:11:34.497Z,17.40
2023-05-10T19:14:02.361Z,17.30
2023-05-10T19:16:30.458Z,17.20
2023-05-10T19:18:58.013Z,17.20
2023-05-10T19:21:25.788Z,17.20
2023-05-10T19:23:53.585Z,17.20
2023-05-10T19:26:21.803Z,17.10
2023-05-10T19:28:52.831Z,17.00
2023-05-10T19:31:21.546Z,16.90
2023-05-10T19:33:49.151Z,16.90
2023-05-10T19:36:16.508Z,16.90
2023-05-10T19:38:43.870Z,16.70
2023-05-10T19:41:11.642Z,16.70
2023-05-10T19:43:39.951Z,16.60
2023-05-10T19:46:08.926Z,16.60
2023-05-10T19:48:36.379Z,16.60
2023-05-10T19:51:10.015Z,16.60
2023-05-10T19:53:37.872Z,16.50
2023-05-10T19:56:06.405Z,16.50
2023-05-10T19:58:34.091Z,16.50
2023-05-10T20:01:01.788Z,16.50
2023-05-10T20:03:29.250Z,16.50
2023-05-10T20:05:56.605Z,16.50
2023-05-10T20:08:24.448Z,16.40
2023-05-10T20:10:51.807Z,16.30
2023-05-10T20:13:19.103Z,16.20
2023-05-10T20:15:46.580Z,16.20
2023-05-10T20:18:13.901Z,16.20
2023-05-10T20:20:41.209Z,16.10
2023-05-10T20:23:08.442Z,16.10
2023-05-10T20:25:35.882Z,16.00
2023-05-10T20:28:03.664Z,16.00
2023-05-10T20:30:31.074Z,16.00
2023-05-10T20:32:58.507Z,16.00
2023-05-10T20:35:25.903Z,16.00
2023-05-10T20:37:53.129Z,16.00
2023-05-10T20:40:20.519Z,15.90
2023-05-10T20:42:49.442Z,15.90
2023-05-10T20:45:16.815Z,15.90
2023-05-10T20:47:44.124Z,15.80
2023-05-10T20:50:11.930Z,15.80
2023-05-10T20:52:39.188Z,15.80
2023-05-10T20:55:07.018Z,15.90
2023-05-10T20:57:34.235Z,15.80
2023-05-10T21:00:01.599Z,15.70
2023-05-10T21:02:28.863Z,15.70
2023-05-10T21:04:57.932Z,15.60
2023-05-10T21:07:25.616Z,15.70
2023-05-10T21:09:52.921Z,15.70
2023-05-10T21:12:20.482Z,15.50
2023-05-10T21:14:47.746Z,15.50
2023-05-10T21:17:15.100Z,15.60
2023-05-10T21:19:42.446Z,15.60
2023-05-10T21:22:10.767Z,15.60
2023-05-10T21:24:41.909Z,15.50
2023-05-10T21:27:09.446Z,15.50
2023-05-10T21:29:41.253Z,15.50
2023-05-10T21:32:09.829Z,15.60
2023-05-10T21:34:37.477Z,15.50
2023-05-10T21:37:04.718Z,15.50
2023-05-10T21:39:32.018Z,15.50
2023-05-10T21:42:00.222Z,15.60
2023-05-10T21:44:27.499Z,15.50
2023-05-10T21:46:54.949Z,15.50
2023-05-10T21:49:22.294Z,15.40
2023-05-10T21:51:49.648Z,15.40
2023-05-10T21:54:16.901Z,15.40
2023-05-10T21:56:44.097Z,15.40
2023-05-10T21:59:11.403Z,15.40
2023-05-10T22:01:38.812Z,15.40
2023-05-10T22:04:06.070Z,15.40
2023-05-10T22:06:33.367Z,15.40
2023-05-10T22:09:00.802Z,15.40
2023-05-10T22:11:28.153Z,15.40
2023-05-10T22:13:55.654Z,15.40
2023-05-10T22:16:23.042Z,15.30
2023-05-10T22:18:50.347Z,15.30
2023-05-10T22:21:17.806Z,15.30
2023-05-10T22:23:45.066Z,15.30
2023-05-10T22:26:12.450Z,15.30
2023-05-10T22:28:39.681Z,15.20
2023-05-10T22:31:11.558Z,15.20
2023-05-10T22:33:39.253Z,15.20
2023-05-10T22:36:06.839Z,15.20
2023-05-10T22:38:34.112Z,15.20
2023-05-10T22:41:01.405Z,15.30
2023-05-10T22:43:28.696Z,15.30
2023-05-10T22:45:55.929Z,15.30
2023-05-10T22:48:23.220Z,15.30
2023-05-10T22:50:50.831Z,15.30
2023-05-10T22:53:18.080Z,15.30
2023-05-10T22:55:47.030Z,15.30
2023-05-10T22:58:14.321Z,15.40
2023-05-10T23:00:41.511Z,15.40
2023-05-10T23:03:08.877Z,15.40
2023-05-10T23:05:36.168Z,15.40
2023-05-10T23:08:03.608Z,15.40
2023-05-10T23:10:30.858Z,15.40
2023-05-10T23:12:58.148Z,15.40
2023-05-10T23:15:25.457Z,15.40
2023-05-10T23:17:52.764Z,15.50
2023-05-10T23:20:20.326Z,15.50
2023-05-10T23:22:47.816Z,15.50
2023-05-10T23:25:15.230Z,15.40
2023-05-10T23:27:42.651Z,15.30
2023-05-10T23:30:10.482Z,15.20
2023-05-10T23:32:37.802Z,15.20
2023-05-10T23:35:05.573Z,15.20
2023-05-10T23:37:32.801Z,15.20
2023-05-10T23:40:00.067Z,15.20
2023-05-10T23:42:27.287Z,15.20
2023-05-10T23:44:54.624Z,15.20
2023-05-10T23:47:21.894Z,15.20
2023-05-10T23:49:50.448Z,15.20
2023-05-10T23:52:17.845Z,15.20
2023-05-10T23:54:46.021Z,15.10
2023-05-10T23:57:16.487Z,15.10
2023-05-10T23:59:43.893Z,15.00
